Time;durP1;ratioP1;P1;durP2;ratioP2;P2;SDS_P1;SDS_P2;PMS_P1;PMS_P2;Temp;Humidity;BMP_temperature;BMP_pressure;BME280_temperature;BME280_humidity;BME280_pressure;Samples;Min_cycle;Max_cycle;Signal;HPM_P1;HPM_P2
2023/07/25 00:01:14;;;;;;;13.90;9.33;;;;;;;16.56;67.55;100148.29;1631514;88;21381;-53
2023/07/25 00:04:20;;;;;;;15.88;8.68;;;;;;;16.55;67.64;100147.12;1631176;86;21347;-53
2023/07/25 00:07:28;;;;;;;11.57;8.43;;;;;;;16.53;67.69;100142.34;1631606;86;21421;-53
2023/07/25 00:10:34;;;;;;;13.03;8.63;;;;;;;16.52;67.81;100146.19;1631514;86;21350;-53
2023/07/25 00:13:41;;;;;;;12.53;8.83;;;;;;;16.49;67.89;100136.41;1631352;86;21238;-53
2023/07/25 00:16:47;;;;;;;12.60;7.92;;;;;;;16.49;67.98;100134.20;1631300;86;21918;-52
2023/07/25 00:19:53;;;;;;;11.63;8.68;;;;;;;16.48;68.04;100135.25;1609377;88;21393;-52
2023/07/25 00:22:59;;;;;;;12.98;8.68;;;;;;;16.46;68.15;100136.84;1631252;86;21764;-52
2023/07/25 00:26:07;;;;;;;13.68;9.13;;;;;;;16.46;68.31;100132.70;1631348;86;21425;-52
2023/07/25 00:29:14;;;;;;;14.05;8.85;;;;;;;16.44;68.42;100130.16;1631369;86;21377;-53
2023/07/25 00:32:20;;;;;;;10.95;8.20;;;;;;;16.44;68.51;100122.39;1631412;88;21458;-53
2023/07/25 00:35:26;;;;;;;14.03;8.58;;;;;;;16.42;68.54;100135.58;1631549;86;21243;-53
2023/07/25 00:38:32;;;;;;;14.43;8.78;;;;;;;16.41;68.63;100126.42;1631327;86;21834;-53
2023/07/25 00:41:37;;;;;;;11.48;8.53;;;;;;;16.39;68.69;100135.46;1631433;88;21389;-54
2023/07/25 00:44:43;;;;;;;13.65;8.73;;;;;;;16.38;68.75;100125.48;1631309;88;21401;-53
2023/07/25 00:47:49;;;;;;;15.20;8.43;;;;;;;16.36;68.76;100134.52;1633186;86;21234;-53
2023/07/25 00:50:56;;;;;;;13.98;7.97;;;;;;;16.33;68.83;100129.99;1633371;88;21230;-53
2023/07/25 00:54:01;;;;;;;12.33;8.38;;;;;;;16.29;68.87;100119.91;1633312;88;21282;-53
2023/07/25 00:57:08;;;;;;;11.33;8.28;;;;;;;16.27;68.90;100117.03;1633373;86;21251;-53
2023/07/25 01:00:16;;;;;;;12.10;8.63;;;;;;;16.22;68.96;100113.55;1633319;86;21234;-53
2023/07/25 01:03:23;;;;;;;10.23;7.70;;;;;;;16.17;69.02;100107.00;1633325;88;21314;-53
2023/07/25 01:06:30;;;;;;;12.53;8.53;;;;;;;16.14;69.07;100097.22;1633280;86;21223;-53
2023/07/25 01:09:53;;;;;;;11.83;8.93;;;;;;;16.13;69.20;100095.53;1633370;86;21250;-52
2023/07/25 01:12:59;;;;;;;14.10;9.37;;;;;;;16.11;69.33;100090.76;1633535;86;21288;-53
2023/07/25 01:16:04;;;;;;;10.98;8.55;;;;;;;16.11;69.51;100091.31;1633552;88;21315;-53
2023/07/25 01:19:10;;;;;;;14.00;9.30;;;;;;;16.10;69.67;100093.22;1633740;86;21876;-53
2023/07/25 01:22:16;;;;;;;14.70;8.83;;;;;;;16.12;69.81;100098.52;1633794;86;21870;-53
2023/07/25 01:25:23;;;;;;;10.65;8.68;;;;;;;16.13;69.94;100106.59;1633727;88;21231;-52
2023/07/25 01:28:28;;;;;;;12.35;8.70;;;;;;;16.13;70.01;100102.44;1633823;86;21796;-52
2023/07/25 01:31:35;;;;;;;10.65;9.03;;;;;;;16.14;70.11;100102.74;1633895;88;21385;-53
2023/07/25 01:34:42;;;;;;;12.60;8.58;;;;;;;16.16;70.20;100098.37;1618501;86;21369;-52
2023/07/25 01:37:48;;;;;;;17.25;8.88;;;;;;;16.15;70.24;100104.98;1633662;88;21286;-52
2023/07/25 01:40:54;;;;;;;10.78;8.50;;;;;;;16.14;70.22;100108.83;1633671;88;21248;-53
2023/07/25 01:44:00;;;;;;;11.40;8.80;;;;;;;16.10;70.22;100118.07;1633701;86;21266;-53
2023/07/25 01:47:06;;;;;;;12.37;8.68;;;;;;;16.07;70.25;100112.98;1631478;86;21243;-53
2023/07/25 01:50:12;;;;;;;10.53;8.23;;;;;;;16.04;70.19;100113.42;1631821;86;22171;-53
2023/07/25 01:53:18;;;;;;;12.50;8.65;;;;;;;16.00;70.10;100115.43;1631851;88;21716;-53
2023/07/25 01:56:18;;;;;;;13.75;7.95;;;;;;;15.96;70.09;100123.84;1631739;86;21358;-53
2023/07/25 01:59:24;;;;;;;11.22;8.38;;;;;;;15.90;70.04;100119.20;1631545;86;21449;-52
2023/07/25 02:02:32;;;;;;;13.22;8.60;;;;;;;15.86;70.05;100123.44;1631852;86;21342;-53
2023/07/25 02:05:38;;;;;;;13.83;8.70;;;;;;;15.83;70.14;100121.11;1631461;88;21389;-53
2023/07/25 02:08:44;;;;;;;12.37;8.08;;;;;;;15.80;70.24;100117.41;1631745;86;21393;-52
2023/07/25 02:11:51;;;;;;;13.43;9.00;;;;;;;15.77;70.29;100120.08;1631538;87;21437;-52
2023/07/25 02:14:57;;;;;;;14.40;8.43;;;;;;;15.76;70.39;100123.88;1631646;86;21378;-53
2023/07/25 02:18:03;;;;;;;12.88;8.33;;;;;;;15.75;70.48;100130.48;1631324;88;21365;-53
2023/07/25 02:21:11;;;;;;;15.63;9.10;;;;;;;15.74;70.53;100130.70;1595959;88;21683;-53
2023/07/25 02:24:16;;;;;;;8.85;7.65;;;;;;;15.74;70.57;100141.22;1599991;89;21422;-52
2023/07/25 02:27:22;;;;;;;13.68;8.65;;;;;;;15.71;70.64;100132.51;1599896;89;21403;-53
2023/07/25 02:30:28;;;;;;;16.82;8.85;;;;;;;15.70;70.71;100138.55;1599906;89;21943;-52
2023/07/25 02:33:35;;;;;;;16.17;8.85;;;;;;;15.70;70.71;100138.55;1599974;89;21398;-52
2023/07/25 02:36:42;;;;;;;14.65;9.20;;;;;;;15.68;70.71;100137.91;1599874;89;21924;-52
2023/07/25 02:39:48;;;;;;;14.80;9.73;;;;;;;15.68;70.70;100141.22;1600453;89;21419;-53
2023/07/25 02:42:54;;;;;;;14.18;9.95;;;;;;;15.68;70.84;100142.60;1600581;89;21387;-53
2023/07/25 02:46:01;;;;;;;13.18;9.63;;;;;;;15.69;70.93;100138.24;1600502;89;21458;-53
2023/07/25 02:49:09;;;;;;;13.78;9.30;;;;;;;15.71;71.03;100131.98;1607249;87;21434;-53
2023/07/25 02:52:15;;;;;;;14.03;10.50;;;;;;;15.73;71.17;100117.42;1608647;89;21371;-53
2023/07/25 02:55:21;;;;;;;16.12;10.40;;;;;;;15.78;71.32;100128.66;1582665;90;21768;-53
2023/07/25 02:58:27;;;;;;;12.60;9.75;;;;;;;15.84;71.50;100120.07;1608836;89;21405;-52
2023/07/25 03:01:34;;;;;;;12.50;10.05;;;;;;;15.91;71.64;100123.13;1601245;89;21403;-54
2023/07/25 03:04:39;;;;;;;13.83;10.05;;;;;;;16.00;71.80;100122.33;1603926;89;21381;-55
2023/07/25 03:07:45;;;;;;;14.58;9.90;;;;;;;16.06;71.91;100118.73;1603735;89;21781;-56
2023/07/25 03:10:51;;;;;;;17.92;11.22;;;;;;;16.15;71.98;100121.03;1604119;89;21805;-54
2023/07/25 03:13:57;;;;;;;22.13;12.03;;;;;;;16.25;72.09;100120.02;1605054;89;21769;-54
2023/07/25 03:17:03;;;;;;;14.60;11.00;;;;;;;16.33;72.16;100117.56;1604472;87;21798;-55
2023/07/25 03:20:08;;;;;;;17.07;11.55;;;;;;;16.42;72.23;100119.86;1604277;89;21277;-55
2023/07/25 03:23:15;;;;;;;15.00;11.20;;;;;;;16.53;72.33;100117.48;1609284;87;21254;-54
2023/07/25 03:26:20;;;;;;;14.00;11.15;;;;;;;16.64;72.47;100112.63;1589905;89;21248;-54
2023/07/25 03:29:27;;;;;;;16.50;11.00;;;;;;;16.74;72.58;100111.10;1583110;90;21283;-55
2023/07/25 03:32:33;;;;;;;13.20;10.68;;;;;;;16.87;72.68;100110.16;1583475;90;21292;-55
2023/07/25 03:35:41;;;;;;;12.63;11.28;;;;;;;16.97;72.77;100106.34;1583642;89;21615;-55
2023/07/25 03:38:47;;;;;;;12.70;10.65;;;;;;;17.10;72.88;100104.87;1583968;90;21808;-55
2023/07/25 03:41:53;;;;;;;14.15;11.55;;;;;;;17.20;72.94;100108.86;1583959;90;21296;-55
2023/07/25 03:44:59;;;;;;;15.83;10.35;;;;;;;17.34;73.03;100110.95;1583917;90;21315;-54
2023/07/25 03:48:05;;;;;;;16.52;11.25;;;;;;;17.44;73.11;100107.16;1583123;90;21327;-54
2023/07/25 03:51:10;;;;;;;12.45;11.12;;;;;;;17.58;73.16;100118.44;1581667;91;21465;-55
2023/07/25 03:54:09;;;;;;;12.28;10.98;;;;;;;17.70;73.23;100123.53;1581613;89;21385;-54
2023/07/25 03:57:03;;;;;;;13.62;10.95;;;;;;;17.81;73.29;100125.02;1581844;91;21277;-53
2023/07/25 03:59:49;;;;;;;13.10;10.55;;;;;;;17.93;73.34;100125.94;1581842;90;21262;-54
2023/07/25 04:02:44;;;;;;;12.43;10.45;;;;;;;18.05;73.35;100123.79;1582199;91;21945;-55
2023/07/25 04:05:32;;;;;;;14.20;10.58;;;;;;;18.16;73.39;100122.49;1582201;89;21913;-56
2023/07/25 04:08:24;;;;;;;15.98;10.65;;;;;;;18.28;73.42;100116.50;1583431;90;21338;-54
2023/07/25 04:11:10;;;;;;;13.10;11.63;;;;;;;18.38;73.43;100110.41;1556533;90;21243;-55
2023/07/25 04:14:04;;;;;;;13.05;11.18;;;;;;;18.51;73.46;100106.09;1582089;89;21476;-55
2023/07/25 04:16:51;;;;;;;17.00;11.28;;;;;;;18.62;73.48;100101.13;1582230;89;21401;-55
2023/07/25 04:19:44;;;;;;;13.05;11.43;;;;;;;18.72;73.49;100102.81;1581675;91;21290;-54
2023/07/25 04:22:31;;;;;;;19.80;12.37;;;;;;;18.84;73.53;100105.08;1581520;90;21254;-55
2023/07/25 04:25:23;;;;;;;14.18;12.65;;;;;;;18.95;73.54;100112.06;1581861;91;21899;-55
2023/07/25 04:28:28;;;;;;;15.43;13.05;;;;;;;19.04;73.55;100113.41;1582087;91;21922;-56
2023/07/25 04:31:34;;;;;;;14.83;12.28;;;;;;;19.15;73.54;100111.77;1582224;89;21416;-55
2023/07/25 04:34:41;;;;;;;19.25;12.78;;;;;;;19.24;73.58;100113.95;1582106;89;21444;-55
2023/07/25 04:37:47;;;;;;;15.03;13.05;;;;;;;19.34;73.60;100110.06;1581556;89;21385;-55
2023/07/25 04:40:53;;;;;;;15.03;12.78;;;;;;;19.47;73.61;100106.78;1599474;87;21728;-55
2023/07/25 04:43:59;;;;;;;14.70;11.85;;;;;;;19.58;73.63;100111.49;1575232;91;21327;-55
2023/07/25 04:47:06;;;;;;;14.00;12.30;;;;;;;19.68;73.59;100109.80;1580125;91;21772;-55
2023/07/25 04:50:14;;;;;;;17.80;13.13;;;;;;;19.80;73.57;100101.47;1605631;87;21268;-54
2023/07/25 04:53:20;;;;;;;16.10;13.15;;;;;;;19.90;73.58;100090.60;1606918;89;21301;-55
2023/07/25 04:56:27;;;;;;;14.87;12.95;;;;;;;20.01;73.54;100084.18;1607253;89;21758;-54
2023/07/25 04:59:32;;;;;;;14.23;12.63;;;;;;;20.13;73.53;100082.21;1634661;87;21270;-55
2023/07/25 05:02:41;;;;;;;16.20;12.58;;;;;;;20.25;73.52;100078.88;1640422;87;21807;-55
2023/07/25 05:05:47;;;;;;;16.82;11.85;;;;;;;20.34;73.52;100078.24;1598526;89;21301;-57
2023/07/25 05:08:53;;;;;;;16.82;12.15;;;;;;;20.45;73.51;100070.44;1623450;86;21267;-57
2023/07/25 05:11:58;;;;;;;18.40;12.98;;;;;;;20.58;73.51;100076.25;1617695;86;21779;-58
2023/07/25 05:15:03;;;;;;;16.85;11.93;;;;;;;20.67;73.50;100079.78;1578788;89;21235;-56
2023/07/25 05:18:09;;;;;;;14.00;11.45;;;;;;;20.78;73.47;100078.88;1594190;88;21250;-57
2023/07/25 05:21:15;;;;;;;13.55;11.08;;;;;;;20.89;73.46;100077.13;1632389;87;21290;-55
2023/07/25 05:24:21;;;;;;;14.87;11.48;;;;;;;21.01;73.50;100078.48;1618137;86;21207;-57
2023/07/25 05:27:27;;;;;;;15.20;12.30;;;;;;;21.13;73.48;100077.86;1609328;87;21310;-56
2023/07/25 05:30:33;;;;;;;13.10;11.78;;;;;;;21.23;73.46;100076.09;1613656;87;21757;-56
2023/07/25 05:33:39;;;;;;;18.25;12.75;;;;;;;21.36;73.48;100074.37;1616701;86;21269;-55
2023/07/25 05:36:45;;;;;;;15.43;10.98;;;;;;;21.46;73.43;100073.16;1630357;86;21294;-56
2023/07/25 05:39:52;;;;;;;14.38;10.72;;;;;;;21.57;73.40;100067.17;1624409;86;21240;-55
2023/07/25 05:42:57;;;;;;;15.40;11.28;;;;;;;21.68;73.34;100063.45;1610232;87;21275;-57
2023/07/25 05:46:03;;;;;;;13.20;10.53;;;;;;;21.79;73.27;100059.20;1610423;87;21225;-56
2023/07/25 05:49:09;;;;;;;11.73;9.90;;;;;;;21.90;73.19;100048.50;1610105;87;21252;-56
2023/07/25 05:52:16;;;;;;;13.70;10.93;;;;;;;22.01;73.12;100048.92;1605649;86;21393;-57
2023/07/25 05:55:23;;;;;;;18.37;10.53;;;;;;;22.12;73.08;100052.14;1579467;89;21249;-59
2023/07/25 05:58:28;;;;;;;12.98;9.70;;;;;;;22.23;73.07;100045.59;1619226;87;21392;-59
2023/07/25 06:01:35;;;;;;;14.47;10.48;;;;;;;22.36;72.96;100047.72;1592624;89;21257;-58
2023/07/25 06:04:45;;;;;;;16.93;10.95;;;;;;;22.46;72.88;100054.25;1559470;89;21274;-58
2023/07/25 06:07:49;;;;;;;13.83;9.75;;;;;;;22.56;72.83;100047.97;1592296;89;21272;-62
2023/07/25 06:10:56;;;;;;;13.60;10.13;;;;;;;22.67;72.77;100055.35;1580914;89;21781;-62
2023/07/25 06:14:03;;;;;;;14.60;10.13;;;;;;;22.78;72.70;100051.02;1580845;91;21298;-62
2023/07/25 06:17:14;;;;;;;12.90;9.95;;;;;;;22.88;72.60;100053.08;1570206;89;21265;-64
2023/07/25 06:20:20;;;;;;;14.45;10.00;;;;;;;23.01;72.56;100051.23;1586754;88;21285;-64
2023/07/25 06:23:26;;;;;;;11.28;8.80;;;;;;;23.11;72.46;100053.58;1601578;89;21308;-63
2023/07/25 06:26:32;;;;;;;13.15;8.85;;;;;;;23.21;72.34;100059.23;1592493;89;21624;-63
2023/07/25 06:29:40;;;;;;;12.78;8.40;;;;;;;23.33;72.24;100054.91;1553374;92;21440;-63
2023/07/25 06:32:46;;;;;;;12.95;8.43;;;;;;;23.42;72.14;100042.97;1553327;90;21282;-61
2023/07/25 06:35:54;;;;;;;10.13;8.10;;;;;;;23.52;72.06;100043.06;1573019;91;21257;-62
2023/07/25 06:39:00;;;;;;;10.90;8.98;;;;;;;23.63;72.00;100034.18;1585621;89;21827;-63
2023/07/25 06:42:07;;;;;;;12.95;8.45;;;;;;;23.75;71.99;100036.23;1576279;89;21242;-64
2023/07/25 06:45:16;;;;;;;10.43;8.40;;;;;;;23.87;71.92;100032.66;1573782;89;21272;-63
2023/07/25 06:48:23;;;;;;;12.55;8.18;;;;;;;24.00;71.84;100036.95;1586157;89;21404;-63
2023/07/25 06:51:30;;;;;;;14.30;8.80;;;;;;;24.11;71.68;100048.48;1594021;89;21807;-62
2023/07/25 06:54:36;;;;;;;13.48;7.97;;;;;;;24.20;71.55;100044.89;1594752;88;21312;-60
2023/07/25 06:57:44;;;;;;;12.55;8.30;;;;;;;24.32;71.39;100053.06;1619595;87;21828;-61
2023/07/25 07:00:53;;;;;;;11.88;7.95;;;;;;;24.42;71.24;100039.94;1615579;87;21764;-60
2023/07/25 07:04:03;;;;;;;11.08;7.22;;;;;;;24.52;71.14;100042.78;1609633;87;21283;-60
2023/07/25 07:07:15;;;;;;;13.03;6.97;;;;;;;24.63;71.00;100044.50;1623825;86;21298;-57
2023/07/25 07:10:23;;;;;;;11.08;7.65;;;;;;;24.74;70.80;100050.44;1589848;89;21277;-55
2023/07/25 07:13:29;;;;;;;11.15;6.92;;;;;;;24.83;70.67;100047.37;1617295;86;21282;-56
2023/07/25 07:16:35;;;;;;;8.73;6.87;;;;;;;24.96;70.57;100046.84;1610118;87;21277;-57
2023/07/25 07:19:44;;;;;;;10.03;6.58;;;;;;;25.10;70.44;100043.50;1622152;86;21311;-60
2023/07/25 07:22:53;;;;;;;7.92;6.45;;;;;;;25.19;70.17;100043.22;1599709;87;21841;-60
2023/07/25 07:26:00;;;;;;;7.75;6.50;;;;;;;25.30;69.98;100047.70;1616723;86;21251;-61
2023/07/25 07:29:06;;;;;;;10.30;6.35;;;;;;;25.39;69.79;100043.24;1610881;87;21251;-59
2023/07/25 07:32:13;;;;;;;9.45;6.45;;;;;;;25.47;69.64;100035.12;1621744;87;21273;-61
2023/07/25 07:35:20;;;;;;;9.25;6.00;;;;;;;25.58;69.41;100040.15;1623911;86;21227;-60
2023/07/25 07:38:25;;;;;;;8.15;6.03;;;;;;;25.64;69.11;100034.26;1622228;86;21258;-59
2023/07/25 07:41:30;;;;;;;9.00;5.90;;;;;;;25.71;68.95;100029.77;1603272;89;21239;-60
2023/07/25 07:44:35;;;;;;;8.50;5.78;;;;;;;25.81;68.78;100036.21;1627729;86;21318;-60
2023/07/25 07:47:42;;;;;;;12.20;5.45;;;;;;;25.91;68.54;100026.34;1629749;87;21260;-61
2023/07/25 07:50:51;;;;;;;9.68;5.90;;;;;;;26.00;68.29;100018.23;1621187;86;21298;-60
2023/07/25 07:54:01;;;;;;;10.32;6.03;;;;;;;26.10;68.14;100016.22;1625953;87;21425;-60
2023/07/25 07:57:07;;;;;;;7.95;5.80;;;;;;;26.19;67.89;99997.69;1583400;88;21784;-60
2023/07/25 08:00:17;;;;;;;7.55;5.65;;;;;;;26.27;67.66;99994.84;1597679;88;21864;-60
2023/07/25 08:03:26;;;;;;;11.88;5.92;;;;;;;26.36;67.44;100000.12;1597932;88;21310;-59
2023/07/25 08:06:38;;;;;;;11.63;5.87;;;;;;;26.44;67.13;99997.56;1587324;88;21429;-60
2023/07/25 08:09:49;;;;;;;7.72;4.95;;;;;;;26.51;66.86;99999.20;1583993;88;21912;-60
2023/07/25 08:12:57;;;;;;;11.33;5.47;;;;;;;26.55;66.58;99992.71;1587428;87;21834;-59
2023/07/25 08:16:02;;;;;;;7.92;5.28;;;;;;;26.57;66.37;99992.42;1558398;89;21292;-62
2023/07/25 08:19:08;;;;;;;9.53;5.67;;;;;;;26.61;66.10;99999.16;1587836;89;21316;-59
2023/07/25 08:22:15;;;;;;;9.00;5.35;;;;;;;26.65;65.88;99981.46;1568814;89;21296;-63
2023/07/25 08:25:24;;;;;;;7.90;4.87;;;;;;;26.74;65.69;99964.81;1594578;89;21284;-62
2023/07/25 08:28:32;;;;;;;7.97;4.70;;;;;;;26.83;65.40;99963.90;1579628;87;22090;-65
2023/07/25 08:31:40;;;;;;;7.65;5.62;;;;;;;26.90;65.03;99960.20;1598757;87;21233;-65
2023/07/25 08:34:47;;;;;;;10.35;5.47;;;;;;;26.98;64.82;99961.55;1587244;89;21317;-66
2023/07/25 08:37:53;;;;;;;6.60;5.28;;;;;;;27.05;64.54;99951.64;1592528;89;21836;-66
2023/07/25 08:41:18;;;;;;;9.95;5.58;;;;;;;27.12;64.40;99952.16;1598883;89;21243;-63
2023/07/25 08:44:25;;;;;;;7.78;5.70;;;;;;;27.22;64.23;99942.23;1597305;88;21819;-64
2023/07/25 08:47:33;;;;;;;9.63;5.00;;;;;;;27.32;64.02;99940.74;1575549;90;21793;-58
2023/07/25 08:50:40;;;;;;;8.18;5.15;;;;;;;27.42;63.73;99939.24;1591712;88;21734;-57
2023/07/25 08:53:49;;;;;;;10.58;5.22;;;;;;;27.49;63.35;99948.19;1580790;89;21262;-60
2023/07/25 08:56:54;;;;;;;8.15;5.50;;;;;;;27.56;63.06;99943.03;1593569;87;21322;-56
2023/07/25 09:00:01;;;;;;;23.62;6.50;;;;;;;27.62;62.77;99932.58;1604874;88;21266;-58
2023/07/25 09:03:07;;;;;;;8.25;5.28;;;;;;;27.67;62.49;99922.09;1616552;87;21233;-62
2023/07/25 09:06:14;;;;;;;7.90;5.20;;;;;;;27.74;62.27;99912.73;1612013;88;21212;-62
2023/07/25 09:09:21;;;;;;;9.28;5.35;;;;;;;27.80;62.03;99914.91;1579187;89;21597;-64
2023/07/25 09:12:26;;;;;;;7.22;5.08;;;;;;;27.84;61.70;99919.63;1607862;87;21768;-65
2023/07/25 09:15:31;;;;;;;6.53;5.12;;;;;;;27.91;61.49;99917.08;1578759;89;21846;-63
2023/07/25 09:18:38;;;;;;;8.80;5.65;;;;;;;27.97;61.27;99911.08;1611212;87;21826;-61
2023/07/25 09:21:58;;;;;;;8.58;5.37;;;;;;;28.04;61.02;99905.05;1575318;88;21574;-61
2023/07/25 09:25:05;;;;;;;7.25;5.35;;;;;;;28.14;60.89;99911.97;1605260;88;21829;-64
2023/07/25 09:28:13;;;;;;;6.25;4.78;;;;;;;28.25;60.69;99906.47;1593276;88;21296;-62
2023/07/25 09:31:21;;;;;;;8.73;5.87;;;;;;;28.34;60.41;99901.81;1585590;88;21249;-63
2023/07/25 09:34:31;;;;;;;7.35;4.87;;;;;;;28.41;60.08;99903.14;1595033;87;21245;-63
2023/07/25 09:37:38;;;;;;;7.67;5.12;;;;;;;28.49;59.84;99890.38;1572592;89;21254;-62
2023/07/25 09:40:45;;;;;;;12.00;5.25;;;;;;;28.59;59.61;99892.45;1605399;87;21712;-62
2023/07/25 09:43:49;;;;;;;8.73;5.22;;;;;;;28.69;59.41;99886.66;1587552;88;21310;-65
2023/07/25 09:47:01;;;;;;;11.03;5.17;;;;;;;28.79;59.10;99902.56;1603711;87;21754;-62
2023/07/25 09:50:09;;;;;;;8.35;5.30;;;;;;;28.85;58.71;99892.88;1591447;89;21301;-62
2023/07/25 09:53:19;;;;;;;12.70;9.53;;;;;;;28.93;58.52;99894.43;1579532;87;21607;-64
2023/07/25 09:56:29;;;;;;;10.08;5.53;;;;;;;29.00;58.16;99886.99;1628701;86;21773;-62
2023/07/25 09:59:36;;;;;;;10.38;5.15;;;;;;;29.15;57.60;99879.69;1635827;85;21321;-62
2023/07/25 10:02:42;;;;;;;9.53;5.00;;;;;;;29.15;57.60;99879.69;1631586;86;21361;-64
2023/07/25 10:05:50;;;;;;;8.53;5.00;;;;;;;29.24;57.17;99883.45;1634200;86;21748;-62
2023/07/25 10:09:00;;;;;;;11.60;5.67;;;;;;;29.29;56.80;99881.14;1630989;86;21254;-67
2023/07/25 10:12:07;;;;;;;9.05;5.00;;;;;;;29.37;56.17;99876.20;1648232;86;21267;-67
2023/07/25 10:15:16;;;;;;;7.20;4.75;;;;;;;29.37;56.17;99876.20;1618369;86;21254;-66
2023/07/25 10:18:26;;;;;;;5.72;4.75;;;;;;;29.41;55.94;99871.02;1620530;87;21621;-67
2023/07/25 10:21:34;;;;;;;10.82;4.75;;;;;;;29.60;55.86;99858.22;1629453;86;21246;-66
2023/07/25 10:24:39;;;;;;;9.98;5.72;;;;;;;29.72;55.32;99866.46;1625629;87;21258;-66
2023/07/25 10:27:46;;;;;;;8.10;5.30;;;;;;;29.83;55.28;99855.21;1631801;86;21258;-67
2023/07/25 10:30:54;;;;;;;6.42;4.58;;;;;;;29.83;55.28;99855.21;1615968;88;21772;-67
2023/07/25 10:34:06;;;;;;;9.38;4.80;;;;;;;30.03;54.40;99861.81;1627108;86;21246;-66
2023/07/25 10:37:30;;;;;;;7.78;5.35;;;;;;;30.03;54.40;99861.81;1623876;86;21741;-66
2023/07/25 10:40:38;;;;;;;9.03;5.28;;;;;;;30.10;54.16;99857.16;1627773;88;21732;-67
2023/07/25 10:44:01;;;;;;;8.40;5.03;;;;;;;30.17;53.85;99845.70;1609743;88;21416;-62
2023/07/25 10:47:09;;;;;;;9.03;5.70;;;;;;;30.25;53.59;99852.62;1608097;88;21407;-63
2023/07/25 10:50:15;;;;;;;8.43;4.83;;;;;;;30.32;53.21;99853.00;1621666;88;21271;-62
2023/07/25 10:53:24;;;;;;;8.48;5.17;;;;;;;30.43;52.92;99844.53;1622263;87;21823;-60
2023/07/25 10:56:29;;;;;;;10.05;5.03;;;;;;;30.54;52.60;99838.92;1609067;87;21763;-63
2023/07/25 10:59:36;;;;;;;6.33;4.95;;;;;;;30.64;52.39;99828.19;1630072;86;21754;-62
2023/07/25 11:02:48;;;;;;;7.08;4.62;;;;;;;30.74;52.05;99827.66;1637992;86;21835;-62
2023/07/25 11:05:55;;;;;;;8.28;5.67;;;;;;;30.82;51.67;99826.36;1631576;86;21789;-61
2023/07/25 11:09:03;;;;;;;6.85;5.08;;;;;;;30.89;51.36;99814.59;1581209;89;21273;-61
2023/07/25 11:12:09;;;;;;;8.48;5.20;;;;;;;30.99;51.08;99804.41;1573785;89;21281;-62
2023/07/25 11:15:15;;;;;;;10.23;5.28;;;;;;;31.10;50.91;99800.98;1571494;88;21277;-63
2023/07/25 11:18:22;;;;;;;8.80;5.90;;;;;;;31.22;50.69;99800.38;1582564;89;21753;-63
2023/07/25 11:21:28;;;;;;;8.93;5.60;;;;;;;31.30;50.41;99788.27;1586070;88;21396;-62
2023/07/25 11:24:36;;;;;;;6.20;5.20;;;;;;;31.42;50.19;99798.41;1567840;90;21284;-64
2023/07/25 11:27:52;;;;;;;8.83;4.83;;;;;;;31.47;49.90;99789.78;1562678;90;21266;-61
2023/07/25 11:31:00;;;;;;;10.23;5.53;;;;;;;31.54;49.58;99782.47;1573423;89;21807;-61
2023/07/25 11:34:07;;;;;;;7.45;5.45;;;;;;;31.63;49.38;99779.68;1553553;90;21292;-60
2023/07/25 11:37:20;;;;;;;7.95;5.60;;;;;;;31.72;49.19;99787.03;1590100;88;21388;-59
2023/07/25 11:40:27;;;;;;;7.92;5.00;;;;;;;31.80;49.01;99777.72;1602726;88;21246;-59
2023/07/25 11:43:39;;;;;;;9.10;4.97;;;;;;;31.84;48.66;99770.25;1608513;89;21262;-56
2023/07/25 11:46:49;;;;;;;9.40;5.17;;;;;;;31.86;48.41;99760.01;1609614;88;21771;-57
2023/07/25 11:49:56;;;;;;;6.03;5.10;;;;;;;31.83;48.12;99764.89;1553713;92;21444;-54
2023/07/25 11:53:03;;;;;;;7.72;5.55;;;;;;;31.82;47.94;99770.31;1593597;88;21311;-57
2023/07/25 11:56:11;;;;;;;14.95;5.37;;;;;;;31.82;47.78;99763.23;1564316;91;22967;-55
2023/07/25 11:59:20;;;;;;;7.75;5.53;;;;;;;31.85;47.61;99751.27;1601184;87;21768;-54
2023/07/25 12:02:27;;;;;;;9.38;5.78;;;;;;;31.88;47.42;99745.79;1614327;84;21820;-54
2023/07/25 12:05:37;;;;;;;8.98;6.03;;;;;;;31.94;47.33;99742.20;1626449;87;21368;-55
2023/07/25 12:08:51;;;;;;;8.80;5.80;;;;;;;31.99;47.14;99746.28;1600122;87;21307;-55
2023/07/25 12:11:58;;;;;;;11.80;5.67;;;;;;;31.98;46.98;99746.86;1626869;87;21251;-59
2023/07/25 12:15:06;;;;;;;9.60;6.00;;;;;;;31.97;46.73;99745.78;1626574;86;21764;-58
2023/07/25 12:18:13;;;;;;;12.15;7.62;;;;;;;31.95;46.57;99738.22;1627508;86;21216;-59
2023/07/25 12:21:18;;;;;;;10.45;5.95;;;;;;;31.92;46.37;99734.64;1639940;87;21746;-58
2023/07/25 12:24:24;;;;;;;7.37;5.37;;;;;;;31.88;46.27;99730.78;1562824;91;21256;-60
2023/07/25 12:27:31;;;;;;;8.15;5.80;;;;;;;31.85;46.18;99722.96;1608271;87;21253;-61
2023/07/25 12:30:36;;;;;;;7.62;5.35;;;;;;;31.87;46.15;99727.11;1582598;89;21257;-58
2023/07/25 12:33:44;;;;;;;8.98;5.67;;;;;;;31.83;46.03;99732.33;1578369;89;21596;-57
2023/07/25 12:36:54;;;;;;;15.43;6.08;;;;;;;31.80;45.96;99728.75;1608466;87;21814;-57
2023/07/25 12:39:59;;;;;;;10.60;5.67;;;;;;;31.85;45.86;99711.06;1582493;89;21263;-59
2023/07/25 12:43:04;;;;;;;9.53;6.10;;;;;;;31.84;45.65;99712.81;1609035;86;21429;-61
2023/07/25 12:46:12;;;;;;;7.72;6.15;;;;;;;31.82;45.59;99723.59;1637260;86;21810;-57
2023/07/25 12:49:18;;;;;;;12.03;5.70;;;;;;;31.82;45.58;99722.17;1636919;86;21238;-59
2023/07/25 12:52:24;;;;;;;9.75;5.95;;;;;;;31.82;45.45;99720.77;1623163;86;21312;-56
2023/07/25 12:55:30;;;;;;;11.93;6.10;;;;;;;31.88;45.41;99719.46;1614740;86;21768;-56
2023/07/25 12:58:35;;;;;;;9.75;5.50;;;;;;;31.88;45.28;99726.54;1580311;89;21262;-60
2023/07/25 13:01:41;;;;;;;10.40;5.85;;;;;;;31.91;45.25;99718.80;1607309;88;21414;-59
2023/07/25 13:04:47;;;;;;;7.08;5.45;;;;;;;32.05;45.32;99718.05;1624939;86;21859;-56
2023/07/25 13:07:53;;;;;;;8.13;6.05;;;;;;;32.18;45.30;99717.05;1632818;86;21254;-55
2023/07/25 13:10:59;;;;;;;9.80;5.53;;;;;;;32.22;45.26;99715.23;1637525;86;21246;-59
2023/07/25 13:14:04;;;;;;;6.97;5.70;;;;;;;32.30;45.21;99709.30;1640776;87;21262;-55
2023/07/25 13:17:12;;;;;;;7.78;6.12;;;;;;;32.30;45.11;99714.36;1641050;86;21652;-59
2023/07/25 13:20:18;;;;;;;7.53;5.05;;;;;;;32.27;45.07;99707.94;1640820;86;21301;-57
2023/07/25 13:23:24;;;;;;;12.25;5.35;;;;;;;32.31;45.01;99706.13;1641466;86;21289;-56
2023/07/25 13:26:31;;;;;;;7.95;5.90;;;;;;;32.41;44.98;99699.31;1641576;86;21261;-59
2023/07/25 13:29:36;;;;;;;10.88;5.65;;;;;;;32.46;44.80;99691.44;1641350;87;21252;-57
2023/07/25 13:32:41;;;;;;;11.00;8.25;;;;;;;32.48;44.71;99690.53;1593153;89;21716;-57
2023/07/25 13:35:50;;;;;;;8.68;6.12;;;;;;;32.41;44.55;99687.39;1608421;89;21822;-56
2023/07/25 13:38:57;;;;;;;8.60;6.10;;;;;;;32.36;44.45;99688.11;1616626;86;21459;-56
2023/07/25 13:42:04;;;;;;;12.13;5.78;;;;;;;32.32;44.34;99682.27;1633545;87;21278;-56
2023/07/25 13:45:09;;;;;;;8.65;5.37;;;;;;;32.33;44.28;99684.53;1623992;87;21262;-55
2023/07/25 13:48:14;;;;;;;8.18;5.80;;;;;;;32.46;44.12;99681.52;1620064;87;21330;-56
2023/07/25 13:51:20;;;;;;;13.60;6.08;;;;;;;32.48;44.03;99676.36;1607327;89;21234;-56
2023/07/25 13:54:26;;;;;;;8.03;6.30;;;;;;;32.47;44.04;99676.70;1607901;87;21266;-56
2023/07/25 13:57:32;;;;;;;13.75;6.65;;;;;;;32.42;44.02;99669.21;1602132;89;21377;-56
2023/07/25 14:00:37;;;;;;;24.82;22.37;;;;;;;32.42;44.04;99671.20;1632469;86;21375;-56
2023/07/25 14:03:42;;;;;;;10.03;7.97;;;;;;;32.40;43.98;99667.29;1599796;86;21306;-52
2023/07/25 14:06:50;;;;;;;9.23;6.75;;;;;;;32.41;43.86;99668.97;1618574;87;21276;-53
2023/07/25 14:09:56;;;;;;;9.85;6.35;;;;;;;32.34;43.76;99662.94;1600755;88;21312;-54
2023/07/25 14:13:03;;;;;;;9.93;6.58;;;;;;;32.22;43.69;99661.97;1625478;86;21274;-55
2023/07/25 14:16:09;;;;;;;9.88;6.42;;;;;;;32.08;43.57;99660.72;1629651;87;21251;-55
2023/07/25 14:19:15;;;;;;;10.90;6.20;;;;;;;31.96;43.57;99656.33;1629780;87;21235;-55
2023/07/25 14:22:23;;;;;;;9.95;6.60;;;;;;;31.87;43.55;99656.92;1629538;87;21239;-55